Flight Track Log - Related Links

Times and Time Zones

All times are in EDT time to prevent confusion due to time zone crossing. See the GGN7280 flight status page for this flight to view local times or setup timezone preferences in your user account.

Time Position Orientation Groundspeed Altitude Reporting Facility
EDT Latitude Longitude Course Direction KTS MPH feet Rate Location/Type
Fri 09:37:44 AM 43.6667 -79.5667 103° East 140 161 1,800  Level Toronto Center
Fri 09:38:44 AM 43.6500 -79.5000 109° East 170 196 3,000 1,100 Climbing Toronto Center
Fri 09:39:44 AM 43.6167 -79.4333 125° Southeast 210 242 4,000 1,000 Climbing Toronto Center
Fri 09:40:44 AM 43.6000 -79.3500 105° East 220 253 5,000 1,050 Climbing Toronto Center
Fri 09:41:44 AM 43.5667 -79.2833 125° Southeast 220 253 6,100 1,350 Climbing Toronto Center
Fri 09:42:44 AM 43.5333 -79.2167 125° Southeast 220 253 7,700 1,300 Climbing Toronto Center
Fri 09:43:44 AM 43.5000 -79.1500 125° Southeast 220 253 8,700 1,200 Climbing Toronto Center
Fri 09:44:44 AM 43.4667 -79.0667 119° Southeast 230 265 10,100 850 Climbing Toronto Center
Fri 09:45:44 AM 43.4500 -78.9667 103° East 250 288 10,400 650 Climbing Toronto Center
Fri 09:46:44 AM 43.4167 -78.9000 125° Southeast 250 288 11,400 900 Climbing Toronto Center
Fri 09:47:44 AM 43.3833 -78.8000 115° Southeast 250 288 12,200 778 Climbing Toronto Center
Fri 09:48:32 AM 43.3547 -78.7789 152° Southeast 242 278 12,800 389 Climbing Cleveland Center
Fri 09:49:32 AM 43.3161 -78.6972 123° Southeast 242 278 12,900 700 Climbing Cleveland Center
Fri 09:50:32 AM 43.2750 -78.6131 124° Southeast 256 295 14,200 1,400 Climbing Cleveland Center
Fri 09:51:32 AM 43.2444 -78.5314 117° Southeast 256 295 15,700 1,350 Climbing Cleveland Center
Fri 09:52:32 AM 43.2078 -78.4614 126° Southeast 245 282 16,900 1,200 Climbing Cleveland Center
Fri 09:53:32 AM 43.1731 -78.3883 123° Southeast 235 270 18,100 1,250 Climbing Cleveland Center
Fri 09:54:32 AM 43.1383 -78.3156 123° Southeast 230 265 19,400 1,300 Climbing Cleveland Center
Fri 09:55:32 AM 43.1261 -78.2250 100° East 225 259 20,700 1,100 Climbing Cleveland Center
Fri 09:56:32 AM 43.1075 -78.1378 106° East 231 266 21,600 900 Climbing Cleveland Center
Fri 09:57:32 AM 43.0911 -78.0503 104° East 231 266 22,500 1,700 Climbing Cleveland Center
Fri 09:58:32 AM 43.0703 -77.9628 108° East 236 272 25,000 900 Climbing Cleveland Center
Fri 09:59:32 AM 43.0539 -77.8756 104° East 236 272 24,300 -100 Descending Cleveland Center
Fri 10:00:32 AM 43.0372 -77.7967 106° East 244 281 24,800 300 Climbing Cleveland Center
Fri 10:01:32 AM 43.0164 -77.7094 108° East 244 281 24,900 50 Climbing Cleveland Center
Fri 10:02:32 AM 42.9908 -77.6086 109° East 249 287 24,900  Level Cleveland Center
Fri 10:04:23 AM 42.9486 -77.4053 106° East 275 316 24,900  Level Boston Center
Fri 10:04:44 AM 42.9167 -77.3333 121° Southeast 290 334 24,900  Level Toronto Center
Fri 10:05:44 AM 42.9167 -77.2167 90° East 300 345 24,900  Level Toronto Center
Fri 10:06:44 AM 42.9167 -77.1000 90° East 300 345 24,900  Level Toronto Center
Fri 10:07:44 AM 42.9167 -77.0000 90° East 300 345 24,900  Level Toronto Center
Fri 10:08:44 AM 42.9167 -76.8833 90° East 300 345 24,900 61 Level Toronto Center
Fri 10:09:23 AM 42.9194 -76.8494 84° East 296 341 25,000  Climbing Boston Center
Fri 10:10:23 AM 42.9133 -76.7386 94° East 296 341 24,900 -50 Descending Boston Center
Fri 10:11:23 AM 42.9117 -76.6108 91° East 296 341 24,900  Level Boston Center
Fri 10:12:23 AM 42.9056 -76.4969 94° East 296 341 24,900 -50 Level Boston Center
Fri 10:13:23 AM 42.9011 -76.3833 93° East 296 341 24,800 -250 Descending Boston Center
Fri 10:14:23 AM 42.8925 -76.2692 96° East 296 341 24,400 -600 Descending Boston Center
Fri 10:15:23 AM 42.8881 -76.1469 93° East 301 346 23,600 -700 Descending Boston Center
Fri 10:16:23 AM 42.8811 -76.0447 95° East 313 360 23,000 -750 Descending Boston Center
Fri 10:17:23 AM 42.8772 -75.9025 92° East 319 367 22,100 -850 Descending Boston Center
Fri 10:18:23 AM 42.8703 -75.7803 94° East 319 367 21,300 -700 Descending Boston Center
Fri 10:19:23 AM 42.8678 -75.6556 92° East 319 367 20,700 -864 Descending Boston Center
Fri 10:20:35 AM 42.8564 -75.5333 97° East 319 367 19,400 -1,182 Descending Boston Center
Fri 10:21:35 AM 42.8478 -75.3883 95° East 325 374 18,100 -1,150 Descending Boston Center
Fri 10:22:35 AM 42.8406 -75.2689 95° East 325 374 17,100 -1,100 Descending Boston Center
Fri 10:23:35 AM 42.8325 -75.1611 96° East 319 367 15,900 -1,150 Descending Boston Center
Fri 10:24:35 AM 42.8250 -75.0447 95° East 314 361 14,800 -968 Descending Boston Center
Fri 10:25:08 AM 42.8225 -74.9708 93° East 315 362 14,400 -947 Descending Boston Center
Fri 10:25:32 AM 42.8194 -74.9197 95° East 310 357 13,900 -911 Descending Boston Center
Fri 10:26:27 AM 42.8111 -74.8233 97° East 302 348 13,200 -783 Descending Boston Center
Fri 10:27:27 AM 42.8092 -74.7100 91° East 296 341 12,400 -797 Descending Boston Center
Fri 10:28:35 AM 42.8031 -74.5908 94° East 299 344 11,500 -656 Descending Boston Center
Fri 10:29:35 AM 42.8261 -74.4728 75° East 288 331 11,000 -1,000 Descending Boston Center
Fri 10:30:41 AM 42.8469 -74.3631 75° East 284 327 9,400 -1,350 Descending Boston Center
Fri 10:31:35 AM 42.8611 -74.2614 79° East 283 326 8,300 -1,158 Descending Boston Center
Fri 10:32:35 AM 42.8731 -74.1625 81° East 283 326 7,200 -1,219 Descending Boston Center
Fri 10:33:43 AM 42.8936 -74.0356 77° East 279 321 5,700 -977 Descending Boston Center
Fri 10:34:44 AM 42.9117 -73.9342 76° East 268 308 5,100 -919 Descending Boston Center
Fri 10:35:47 AM 42.9211 -73.8350 83° East 261 300 3,800 -1,317 Descending Boston Center
Fri 10:36:47 AM 42.8819 -73.8086 154° Southeast 151 174 2,400 -850 Descending Boston Center
Fri 10:37:47 AM 42.8489 -73.7797 147° Southeast 144 166 2,100 -667 Descending Boston Center
Fri 10:38:53 AM 42.7903 -73.8094 200° South 147 169 1,000 -1,000 Descending Boston Center
Fri 10:41:00 AM 42.7491 -73.8020 North  Level Estimated
Fri 10:48:00 AM 42.7491 -73.8020 North  Level Estimated
Fri 10:49:00 AM 42.7491 -73.8020 North  Level Estimated
Fri 10:50:00 AM 42.7491 -73.8020 North  Level Estimated

Login

Don't have an account? Register now (free) for customized features, flight alerts, and more!